sensor_id;sensor_type;location;lat;lon;timestamp;temperature;humidity
18252;DHT22;26917;52.328;20.878;2022-10-31T00:01:18;7.70;99.90
18252;DHT22;26917;52.328;20.878;2022-10-31T00:03:46;7.70;99.90
18252;DHT22;26917;52.328;20.878;2022-10-31T00:06:15;7.60;99.90
18252;DHT22;26917;52.328;20.878;2022-10-31T00:08:45;7.70;99.90
18252;DHT22;26917;52.328;20.878;2022-10-31T00:11:13;7.70;99.90
18252;DHT22;26917;52.328;20.878;2022-10-31T00:13:41;7.60;99.90
18252;DHT22;26917;52.328;20.878;2022-10-31T00:16:15;7.60;99.90
18252;DHT22;26917;52.328;20.878;2022-10-31T00:18:43;7.60;99.90
18252;DHT22;26917;52.328;20.878;2022-10-31T00:21:11;7.60;99.90
18252;DHT22;26917;52.328;20.878;2022-10-31T00:23:40;7.60;99.90
18252;DHT22;26917;52.328;20.878;2022-10-31T00:26:08;7.50;99.90
18252;DHT22;26917;52.328;20.878;2022-10-31T00:28:36;7.50;99.90
18252;DHT22;26917;52.328;20.878;2022-10-31T00:31:06;7.60;99.90
18252;DHT22;26917;52.328;20.878;2022-10-31T00:33:37;7.50;99.90
18252;DHT22;26917;52.328;20.878;2022-10-31T00:36:07;7.60;99.90
18252;DHT22;26917;52.328;20.878;2022-10-31T00:38:36;7.50;99.90
18252;DHT22;26917;52.328;20.878;2022-10-31T00:41:04;7.50;99.90
18252;DHT22;26917;52.328;20.878;2022-10-31T00:43:32;7.40;99.90
18252;DHT22;26917;52.328;20.878;2022-10-31T00:46:01;7.40;99.90
18252;DHT22;26917;52.328;20.878;2022-10-31T00:48:29;7.40;99.90
18252;DHT22;26917;52.328;20.878;2022-10-31T00:50:59;7.40;99.90
18252;DHT22;26917;52.328;20.878;2022-10-31T00:53:27;7.30;99.90
18252;DHT22;26917;52.328;20.878;2022-10-31T00:55:55;7.40;99.90
18252;DHT22;26917;52.328;20.878;2022-10-31T00:58:24;7.20;99.90
18252;DHT22;26917;52.328;20.878;2022-10-31T01:00:53;7.10;99.90
18252;DHT22;26917;52.328;20.878;2022-10-31T01:03:23;7.20;99.90
18252;DHT22;26917;52.328;20.878;2022-10-31T01:06:01;7.10;99.90
18252;DHT22;26917;52.328;20.878;2022-10-31T01:08:32;7.00;99.90
18252;DHT22;26917;52.328;20.878;2022-10-31T01:11:03;7.10;99.90
18252;DHT22;26917;52.328;20.878;2022-10-31T01:13:32;7.10;99.90
18252;DHT22;26917;52.328;20.878;2022-10-31T01:16:01;7.10;99.90
18252;DHT22;26917;52.328;20.878;2022-10-31T01:18:32;7.20;99.90
18252;DHT22;26917;52.328;20.878;2022-10-31T01:21:04;7.10;99.90
18252;DHT22;26917;52.328;20.878;2022-10-31T01:23:33;7.10;99.90
18252;DHT22;26917;52.328;20.878;2022-10-31T01:26:05;7.00;99.90
18252;DHT22;26917;52.328;20.878;2022-10-31T01:28:33;7.00;99.90
18252;DHT22;26917;52.328;20.878;2022-10-31T01:31:04;7.00;99.90
18252;DHT22;26917;52.328;20.878;2022-10-31T01:33:34;7.00;99.90
18252;DHT22;26917;52.328;20.878;2022-10-31T01:36:13;6.90;99.90
18252;DHT22;26917;52.328;20.878;2022-10-31T01:38:41;6.90;99.90
18252;DHT22;26917;52.328;20.878;2022-10-31T01:41:10;6.90;99.90
18252;DHT22;26917;52.328;20.878;2022-10-31T01:43:45;6.90;99.90
18252;DHT22;26917;52.328;20.878;2022-10-31T01:46:14;6.90;99.90
18252;DHT22;26917;52.328;20.878;2022-10-31T01:48:43;6.90;99.90
18252;DHT22;26917;52.328;20.878;2022-10-31T01:51:14;6.90;99.90
18252;DHT22;26917;52.328;20.878;2022-10-31T01:53:44;6.90;99.90
18252;DHT22;26917;52.328;20.878;2022-10-31T01:56:15;6.90;99.90
18252;DHT22;26917;52.328;20.878;2022-10-31T01:58:45;6.80;99.90
18252;DHT22;26917;52.328;20.878;2022-10-31T02:01:16;6.80;99.90
18252;DHT22;26917;52.328;20.878;2022-10-31T02:03:46;6.80;99.90
18252;DHT22;26917;52.328;20.878;2022-10-31T02:06:25;6.70;99.90
18252;DHT22;26917;52.328;20.878;2022-10-31T02:08:55;6.80;99.90
18252;DHT22;26917;52.328;20.878;2022-10-31T02:11:25;6.70;99.90
18252;DHT22;26917;52.328;20.878;2022-10-31T02:13:55;7.00;99.90
18252;DHT22;26917;52.328;20.878;2022-10-31T02:16:24;6.60;99.90
18252;DHT22;26917;52.328;20.878;2022-10-31T02:18:53;6.70;99.90
18252;DHT22;26917;52.328;20.878;2022-10-31T02:21:26;6.70;99.90
18252;DHT22;26917;52.328;20.878;2022-10-31T02:24:18;6.60;99.90
18252;DHT22;26917;52.328;20.878;2022-10-31T02:26:57;6.60;99.90
18252;DHT22;26917;52.328;20.878;2022-10-31T02:33:06;6.60;99.90
18252;DHT22;26917;52.328;20.878;2022-10-31T02:35:45;6.50;99.90
18252;DHT22;26917;52.328;20.878;2022-10-31T02:38:28;6.60;99.90
18252;DHT22;26917;52.328;20.878;2022-10-31T02:41:04;6.50;99.90
18252;DHT22;26917;52.328;20.878;2022-10-31T02:43:49;6.50;99.90
18252;DHT22;26917;52.328;20.878;2022-10-31T02:46:27;6.50;99.90
18252;DHT22;26917;52.328;20.878;2022-10-31T02:49:03;6.50;99.90
18252;DHT22;26917;52.328;20.878;2022-10-31T02:51:32;6.50;99.90
18252;DHT22;26917;52.328;20.878;2022-10-31T02:54:01;6.50;99.90
18252;DHT22;26917;52.328;20.878;2022-10-31T02:56:29;6.50;99.90
18252;DHT22;26917;52.328;20.878;2022-10-31T02:59:00;6.50;99.90
18252;DHT22;26917;52.328;20.878;2022-10-31T03:01:43;6.60;99.90
18252;DHT22;26917;52.328;20.878;2022-10-31T03:04:43;6.60;99.90
18252;DHT22;26917;52.328;20.878;2022-10-31T03:07:19;6.60;99.90
18252;DHT22;26917;52.328;20.878;2022-10-31T03:09:55;6.60;99.90
18252;DHT22;26917;52.328;20.878;2022-10-31T03:12:28;6.60;99.90
18252;DHT22;26917;52.328;20.878;2022-10-31T03:15:08;6.70;99.90
18252;DHT22;26917;52.328;20.878;2022-10-31T03:17:47;6.70;99.90
18252;DHT22;26917;52.328;20.878;2022-10-31T03:20:22;6.60;99.90
18252;DHT22;26917;52.328;20.878;2022-10-31T03:22:52;6.70;99.90
18252;DHT22;26917;52.328;20.878;2022-10-31T03:25:23;6.70;99.90
18252;DHT22;26917;52.328;20.878;2022-10-31T03:27:56;6.70;99.90
18252;DHT22;26917;52.328;20.878;2022-10-31T03:30:27;6.70;99.90
18252;DHT22;26917;52.328;20.878;2022-10-31T03:32:58;6.70;99.90
18252;DHT22;26917;52.328;20.878;2022-10-31T03:35:32;6.60;99.90
18252;DHT22;26917;52.328;20.878;2022-10-31T03:38:03;6.60;99.90
18252;DHT22;26917;52.328;20.878;2022-10-31T03:40:36;6.60;99.90
18252;DHT22;26917;52.328;20.878;2022-10-31T03:43:07;6.50;99.90
18252;DHT22;26917;52.328;20.878;2022-10-31T03:45:40;6.50;99.90
18252;DHT22;26917;52.328;20.878;2022-10-31T03:48:11;6.40;99.90
18252;DHT22;26917;52.328;20.878;2022-10-31T03:50:47;6.40;99.90
18252;DHT22;26917;52.328;20.878;2022-10-31T03:53:22;6.20;99.90
18252;DHT22;26917;52.328;20.878;2022-10-31T03:55:57;6.20;99.90
18252;DHT22;26917;52.328;20.878;2022-10-31T03:58:29;6.20;99.90
18252;DHT22;26917;52.328;20.878;2022-10-31T04:01:01;6.10;99.90
18252;DHT22;26917;52.328;20.878;2022-10-31T04:03:31;6.30;99.90
18252;DHT22;26917;52.328;20.878;2022-10-31T04:06:05;6.30;99.90
18252;DHT22;26917;52.328;20.878;2022-10-31T04:08:40;6.10;99.90
18252;DHT22;26917;52.328;20.878;2022-10-31T04:11:14;6.20;99.90
18252;DHT22;26917;52.328;20.878;2022-10-31T04:13:50;6.10;99.90
18252;DHT22;26917;52.328;20.878;2022-10-31T04:16:22;6.10;99.90
18252;DHT22;26917;52.328;20.878;2022-10-31T04:18:51;6.10;99.90
18252;DHT22;26917;52.328;20.878;2022-10-31T04:21:26;6.10;99.90
18252;DHT22;26917;52.328;20.878;2022-10-31T04:23:57;5.90;99.90
18252;DHT22;26917;52.328;20.878;2022-10-31T04:26:28;6.00;99.90
18252;DHT22;26917;52.328;20.878;2022-10-31T04:28:57;6.00;99.90
18252;DHT22;26917;52.328;20.878;2022-10-31T04:31:27;5.90;99.90
18252;DHT22;26917;52.328;20.878;2022-10-31T04:33:56;6.00;99.90
18252;DHT22;26917;52.328;20.878;2022-10-31T04:36:26;6.00;99.90
18252;DHT22;26917;52.328;20.878;2022-10-31T04:38:55;6.00;99.90
18252;DHT22;26917;52.328;20.878;2022-10-31T04:41:35;6.00;99.90
18252;DHT22;26917;52.328;20.878;2022-10-31T04:44:15;6.00;99.90
18252;DHT22;26917;52.328;20.878;2022-10-31T04:46:46;6.00;99.90
18252;DHT22;26917;52.328;20.878;2022-10-31T04:49:14;6.00;99.90
18252;DHT22;26917;52.328;20.878;2022-10-31T04:51:44;6.00;99.90
18252;DHT22;26917;52.328;20.878;2022-10-31T04:54:13;6.00;99.90
18252;DHT22;26917;52.328;20.878;2022-10-31T04:57:16;6.10;99.90
18252;DHT22;26917;52.328;20.878;2022-10-31T04:59:46;6.00;99.90
18252;DHT22;26917;52.328;20.878;2022-10-31T05:02:15;6.00;99.90
18252;DHT22;26917;52.328;20.878;2022-10-31T05:04:49;5.90;99.90
18252;DHT22;26917;52.328;20.878;2022-10-31T05:07:19;5.90;99.90
18252;DHT22;26917;52.328;20.878;2022-10-31T05:09:48;5.90;99.90
18252;DHT22;26917;52.328;20.878;2022-10-31T05:12:18;5.90;99.90
18252;DHT22;26917;52.328;20.878;2022-10-31T05:15:20;5.80;99.90
18252;DHT22;26917;52.328;20.878;2022-10-31T05:18:06;5.90;99.90
18252;DHT22;26917;52.328;20.878;2022-10-31T05:21:00;5.80;99.90
18252;DHT22;26917;52.328;20.878;2022-10-31T05:23:38;5.70;99.90
18252;DHT22;26917;52.328;20.878;2022-10-31T05:26:14;6.20;99.90
18252;DHT22;26917;52.328;20.878;2022-10-31T05:28:42;5.80;99.90
18252;DHT22;26917;52.328;20.878;2022-10-31T05:31:10;5.80;99.90
18252;DHT22;26917;52.328;20.878;2022-10-31T05:33:41;5.80;99.90
18252;DHT22;26917;52.328;20.878;2022-10-31T05:36:27;5.70;99.90
18252;DHT22;26917;52.328;20.878;2022-10-31T05:39:04;5.70;99.90
18252;DHT22;26917;52.328;20.878;2022-10-31T05:41:39;5.70;99.90
18252;DHT22;26917;52.328;20.878;2022-10-31T05:44:14;5.70;99.90
18252;DHT22;26917;52.328;20.878;2022-10-31T05:47:08;5.70;99.90
18252;DHT22;26917;52.328;20.878;2022-10-31T05:49:36;5.70;99.90
18252;DHT22;26917;52.328;20.878;2022-10-31T05:52:43;5.70;99.90
18252;DHT22;26917;52.328;20.878;2022-10-31T05:55:30;5.70;99.90
18252;DHT22;26917;52.328;20.878;2022-10-31T05:58:19;5.60;99.90
18252;DHT22;26917;52.328;20.878;2022-10-31T06:00:54;5.70;99.90
18252;DHT22;26917;52.328;20.878;2022-10-31T06:03:22;5.70;99.90
18252;DHT22;26917;52.328;20.878;2022-10-31T06:05:54;5.80;99.90
18252;DHT22;26917;52.328;20.878;2022-10-31T06:08:30;5.80;99.90
18252;DHT22;26917;52.328;20.878;2022-10-31T06:11:04;5.80;99.90
18252;DHT22;26917;52.328;20.878;2022-10-31T06:13:51;5.80;99.90
18252;DHT22;26917;52.328;20.878;2022-10-31T06:16:23;5.80;99.90
18252;DHT22;26917;52.328;20.878;2022-10-31T06:18:54;5.80;99.90
18252;DHT22;26917;52.328;20.878;2022-10-31T06:21:23;5.90;99.90
18252;DHT22;26917;52.328;20.878;2022-10-31T06:23:51;5.90;99.90
18252;DHT22;26917;52.328;20.878;2022-10-31T06:26:46;6.00;99.90
18252;DHT22;26917;52.328;20.878;2022-10-31T06:29:14;5.90;99.90
18252;DHT22;26917;52.328;20.878;2022-10-31T06:32:04;6.00;99.90
18252;DHT22;26917;52.328;20.878;2022-10-31T06:34:38;6.10;99.90
18252;DHT22;26917;52.328;20.878;2022-10-31T06:37:07;6.00;99.90
18252;DHT22;26917;52.328;20.878;2022-10-31T06:39:37;6.10;99.90
18252;DHT22;26917;52.328;20.878;2022-10-31T06:42:08;6.20;99.90
18252;DHT22;26917;52.328;20.878;2022-10-31T06:44:36;6.60;99.90
18252;DHT22;26917;52.328;20.878;2022-10-31T06:47:50;6.40;99.90
18252;DHT22;26917;52.328;20.878;2022-10-31T06:50:57;6.40;99.90
18252;DHT22;26917;52.328;20.878;2022-10-31T06:53:26;6.50;99.90
18252;DHT22;26917;52.328;20.878;2022-10-31T06:55:57;6.60;99.90
18252;DHT22;26917;52.328;20.878;2022-10-31T06:58:27;6.60;99.90
18252;DHT22;26917;52.328;20.878;2022-10-31T07:00:59;6.60;99.90
18252;DHT22;26917;52.328;20.878;2022-10-31T07:03:28;6.70;99.90
18252;DHT22;26917;52.328;20.878;2022-10-31T07:05:57;6.80;99.90
18252;DHT22;26917;52.328;20.878;2022-10-31T07:08:25;6.80;99.90
18252;DHT22;26917;52.328;20.878;2022-10-31T07:10:56;6.90;99.90
18252;DHT22;26917;52.328;20.878;2022-10-31T07:13:27;7.00;99.90
18252;DHT22;26917;52.328;20.878;2022-10-31T07:16:07;7.10;99.90
18252;DHT22;26917;52.328;20.878;2022-10-31T07:18:39;7.20;99.90
18252;DHT22;26917;52.328;20.878;2022-10-31T07:21:08;7.30;99.90
18252;DHT22;26917;52.328;20.878;2022-10-31T07:23:36;7.30;99.90
18252;DHT22;26917;52.328;20.878;2022-10-31T07:26:31;7.40;99.90
18252;DHT22;26917;52.328;20.878;2022-10-31T07:29:00;7.50;99.90
18252;DHT22;26917;52.328;20.878;2022-10-31T07:31:28;7.60;99.90
18252;DHT22;26917;52.328;20.878;2022-10-31T07:34:03;7.60;99.90
18252;DHT22;26917;52.328;20.878;2022-10-31T07:36:34;7.80;99.90
18252;DHT22;26917;52.328;20.878;2022-10-31T07:39:03;8.00;99.90
18252;DHT22;26917;52.328;20.878;2022-10-31T07:41:34;7.90;99.90
18252;DHT22;26917;52.328;20.878;2022-10-31T07:44:04;8.00;99.90
18252;DHT22;26917;52.328;20.878;2022-10-31T07:47:04;8.10;99.90
18252;DHT22;26917;52.328;20.878;2022-10-31T07:49:50;8.20;99.90
18252;DHT22;26917;52.328;20.878;2022-10-31T07:52:37;8.40;99.90
18252;DHT22;26917;52.328;20.878;2022-10-31T07:55:44;8.40;99.90
18252;DHT22;26917;52.328;20.878;2022-10-31T07:58:14;8.40;99.90
18252;DHT22;26917;52.328;20.878;2022-10-31T08:00:46;8.70;99.90
18252;DHT22;26917;52.328;20.878;2022-10-31T08:03:25;8.70;99.90
18252;DHT22;26917;52.328;20.878;2022-10-31T08:06:11;8.80;99.90
18252;DHT22;26917;52.328;20.878;2022-10-31T08:09:09;8.90;99.90
18252;DHT22;26917;52.328;20.878;2022-10-31T08:11:38;9.00;99.90
18252;DHT22;26917;52.328;20.878;2022-10-31T08:14:06;9.10;99.90
18252;DHT22;26917;52.328;20.878;2022-10-31T08:16:36;9.30;99.90
18252;DHT22;26917;52.328;20.878;2022-10-31T08:19:06;9.30;99.90
18252;DHT22;26917;52.328;20.878;2022-10-31T08:21:37;9.40;99.90
18252;DHT22;26917;52.328;20.878;2022-10-31T08:24:07;9.50;99.90
18252;DHT22;26917;52.328;20.878;2022-10-31T08:26:36;9.50;99.90
18252;DHT22;26917;52.328;20.878;2022-10-31T08:29:07;9.60;99.90
18252;DHT22;26917;52.328;20.878;2022-10-31T08:31:38;9.70;99.90
18252;DHT22;26917;52.328;20.878;2022-10-31T08:34:27;9.70;99.90
18252;DHT22;26917;52.328;20.878;2022-10-31T08:37:14;9.80;99.90
18252;DHT22;26917;52.328;20.878;2022-10-31T08:39:51;9.90;99.90
18252;DHT22;26917;52.328;20.878;2022-10-31T08:42:20;9.90;99.90
18252;DHT22;26917;52.328;20.878;2022-10-31T08:44:49;10.00;99.90
18252;DHT22;26917;52.328;20.878;2022-10-31T08:47:22;10.00;99.90
18252;DHT22;26917;52.328;20.878;2022-10-31T08:49:50;10.10;99.90
18252;DHT22;26917;52.328;20.878;2022-10-31T08:52:22;10.10;99.90
18252;DHT22;26917;52.328;20.878;2022-10-31T08:55:11;10.20;99.90
18252;DHT22;26917;52.328;20.878;2022-10-31T08:57:45;10.30;99.90
18252;DHT22;26917;52.328;20.878;2022-10-31T09:00:13;10.40;99.90
18252;DHT22;26917;52.328;20.878;2022-10-31T09:02:59;10.50;99.90
18252;DHT22;26917;52.328;20.878;2022-10-31T09:05:29;10.50;99.90
18252;DHT22;26917;52.328;20.878;2022-10-31T09:07:59;10.60;99.90
18252;DHT22;26917;52.328;20.878;2022-10-31T09:10:30;10.80;99.90
18252;DHT22;26917;52.328;20.878;2022-10-31T09:13:04;10.90;99.90
18252;DHT22;26917;52.328;20.878;2022-10-31T09:15:59;11.00;99.90
18252;DHT22;26917;52.328;20.878;2022-10-31T09:18:28;11.20;99.90
18252;DHT22;26917;52.328;20.878;2022-10-31T09:20:59;11.30;99.90
18252;DHT22;26917;52.328;20.878;2022-10-31T09:23:30;11.30;99.90
18252;DHT22;26917;52.328;20.878;2022-10-31T09:26:00;11.40;99.90
18252;DHT22;26917;52.328;20.878;2022-10-31T09:28:42;11.40;99.90
18252;DHT22;26917;52.328;20.878;2022-10-31T09:31:13;11.50;99.90
18252;DHT22;26917;52.328;20.878;2022-10-31T09:33:48;11.60;99.90
18252;DHT22;26917;52.328;20.878;2022-10-31T09:36:35;11.60;99.90
18252;DHT22;26917;52.328;20.878;2022-10-31T09:39:05;11.60;99.90
18252;DHT22;26917;52.328;20.878;2022-10-31T09:41:48;11.70;99.90
18252;DHT22;26917;52.328;20.878;2022-10-31T09:44:29;11.70;99.90
18252;DHT22;26917;52.328;20.878;2022-10-31T09:47:03;11.70;99.90
18252;DHT22;26917;52.328;20.878;2022-10-31T09:49:42;11.80;99.90
18252;DHT22;26917;52.328;20.878;2022-10-31T09:52:17;11.90;99.90
18252;DHT22;26917;52.328;20.878;2022-10-31T09:54:54;11.90;99.90
18252;DHT22;26917;52.328;20.878;2022-10-31T09:57:25;12.00;99.90
18252;DHT22;26917;52.328;20.878;2022-10-31T09:59:57;12.10;99.90
18252;DHT22;26917;52.328;20.878;2022-10-31T10:02:31;12.20;99.90
18252;DHT22;26917;52.328;20.878;2022-10-31T10:05:08;12.20;99.90
18252;DHT22;26917;52.328;20.878;2022-10-31T10:07:47;12.30;99.90
18252;DHT22;26917;52.328;20.878;2022-10-31T10:10:58;12.30;99.90
18252;DHT22;26917;52.328;20.878;2022-10-31T10:14:14;12.40;99.90
18252;DHT22;26917;52.328;20.878;2022-10-31T10:16:57;12.50;99.90
18252;DHT22;26917;52.328;20.878;2022-10-31T10:19:42;12.50;99.90
18252;DHT22;26917;52.328;20.878;2022-10-31T10:22:22;12.60;99.90
18252;DHT22;26917;52.328;20.878;2022-10-31T10:25:02;12.70;99.90
18252;DHT22;26917;52.328;20.878;2022-10-31T10:27:49;12.70;99.90
18252;DHT22;26917;52.328;20.878;2022-10-31T10:30:19;12.80;99.90
18252;DHT22;26917;52.328;20.878;2022-10-31T10:32:50;12.90;99.90
18252;DHT22;26917;52.328;20.878;2022-10-31T10:35:23;12.90;99.90
18252;DHT22;26917;52.328;20.878;2022-10-31T10:37:56;13.00;99.90
18252;DHT22;26917;52.328;20.878;2022-10-31T10:40:27;13.10;99.90
18252;DHT22;26917;52.328;20.878;2022-10-31T10:43:05;13.10;99.90
18252;DHT22;26917;52.328;20.878;2022-10-31T10:45:50;13.20;99.90
18252;DHT22;26917;52.328;20.878;2022-10-31T10:48:43;13.30;99.90
18252;DHT22;26917;52.328;20.878;2022-10-31T10:51:22;13.30;99.90
18252;DHT22;26917;52.328;20.878;2022-10-31T10:57:34;13.40;99.90
18252;DHT22;26917;52.328;20.878;2022-10-31T11:00:18;13.50;99.90
18252;DHT22;26917;52.328;20.878;2022-10-31T11:02:48;13.60;99.90
18252;DHT22;26917;52.328;20.878;2022-10-31T11:05:27;13.60;99.90
18252;DHT22;26917;52.328;20.878;2022-10-31T11:07:56;13.70;99.90
18252;DHT22;26917;52.328;20.878;2022-10-31T11:10:26;13.70;99.90
18252;DHT22;26917;52.328;20.878;2022-10-31T11:13:02;13.70;99.90
18252;DHT22;26917;52.328;20.878;2022-10-31T11:15:34;13.80;99.90
18252;DHT22;26917;52.328;20.878;2022-10-31T11:18:04;13.80;99.90
18252;DHT22;26917;52.328;20.878;2022-10-31T11:20:34;13.80;99.90
18252;DHT22;26917;52.328;20.878;2022-10-31T11:23:17;13.90;99.90
18252;DHT22;26917;52.328;20.878;2022-10-31T11:25:52;13.80;99.90
18252;DHT22;26917;52.328;20.878;2022-10-31T11:28:20;13.90;99.90
18252;DHT22;26917;52.328;20.878;2022-10-31T11:30:52;13.90;99.90
18252;DHT22;26917;52.328;20.878;2022-10-31T11:33:26;13.90;99.90
18252;DHT22;26917;52.328;20.878;2022-10-31T11:35:55;13.90;99.90
18252;DHT22;26917;52.328;20.878;2022-10-31T11:38:32;13.90;99.90
18252;DHT22;26917;52.328;20.878;2022-10-31T11:41:10;14.00;99.90
18252;DHT22;26917;52.328;20.878;2022-10-31T11:43:46;14.00;99.90
18252;DHT22;26917;52.328;20.878;2022-10-31T11:46:19;14.00;99.90
18252;DHT22;26917;52.328;20.878;2022-10-31T11:48:50;14.10;99.90
18252;DHT22;26917;52.328;20.878;2022-10-31T11:51:25;14.10;99.90
18252;DHT22;26917;52.328;20.878;2022-10-31T11:53:57;14.10;99.90
18252;DHT22;26917;52.328;20.878;2022-10-31T11:56:41;14.10;99.90
18252;DHT22;26917;52.328;20.878;2022-10-31T11:59:26;14.20;99.90
18252;DHT22;26917;52.328;20.878;2022-10-31T12:01:56;14.20;99.90
18252;DHT22;26917;52.328;20.878;2022-10-31T12:04:32;14.20;99.90
18252;DHT22;26917;52.328;20.878;2022-10-31T12:07:03;14.20;99.90
18252;DHT22;26917;52.328;20.878;2022-10-31T12:09:34;14.20;99.90
18252;DHT22;26917;52.328;20.878;2022-10-31T12:12:17;14.20;99.90
18252;DHT22;26917;52.328;20.878;2022-10-31T12:15:06;14.30;99.90
18252;DHT22;26917;52.328;20.878;2022-10-31T12:17:43;14.30;99.90
18252;DHT22;26917;52.328;20.878;2022-10-31T12:20:22;14.30;99.90
18252;DHT22;26917;52.328;20.878;2022-10-31T12:22:58;14.30;99.90
18252;DHT22;26917;52.328;20.878;2022-10-31T12:25:38;14.40;99.90
18252;DHT22;26917;52.328;20.878;2022-10-31T12:28:27;14.40;99.90
18252;DHT22;26917;52.328;20.878;2022-10-31T12:31:06;14.40;99.90
18252;DHT22;26917;52.328;20.878;2022-10-31T12:33:45;14.40;99.90
18252;DHT22;26917;52.328;20.878;2022-10-31T12:36:26;14.40;99.90
18252;DHT22;26917;52.328;20.878;2022-10-31T12:41:52;14.40;99.90
18252;DHT22;26917;52.328;20.878;2022-10-31T12:45:07;14.40;99.90
18252;DHT22;26917;52.328;20.878;2022-10-31T12:48:14;14.50;99.90
18252;DHT22;26917;52.328;20.878;2022-10-31T12:50:52;14.40;99.90
18252;DHT22;26917;52.328;20.878;2022-10-31T12:53:33;14.40;99.90
18252;DHT22;26917;52.328;20.878;2022-10-31T12:56:14;14.40;99.90
18252;DHT22;26917;52.328;20.878;2022-10-31T12:58:47;14.40;99.90
18252;DHT22;26917;52.328;20.878;2022-10-31T13:01:23;14.40;99.90
18252;DHT22;26917;52.328;20.878;2022-10-31T13:03:55;14.40;99.90
18252;DHT22;26917;52.328;20.878;2022-10-31T13:06:30;14.40;99.90
18252;DHT22;26917;52.328;20.878;2022-10-31T13:09:07;14.40;99.90
18252;DHT22;26917;52.328;20.878;2022-10-31T13:11:39;14.40;99.90
18252;DHT22;26917;52.328;20.878;2022-10-31T13:14:12;14.40;99.90
18252;DHT22;26917;52.328;20.878;2022-10-31T13:16:46;14.40;99.90
18252;DHT22;26917;52.328;20.878;2022-10-31T13:19:17;14.40;99.90
18252;DHT22;26917;52.328;20.878;2022-10-31T13:21:53;14.40;99.90
18252;DHT22;26917;52.328;20.878;2022-10-31T13:24:28;14.40;99.90
18252;DHT22;26917;52.328;20.878;2022-10-31T13:26:59;14.30;99.90
18252;DHT22;26917;52.328;20.878;2022-10-31T13:29:32;14.30;99.90
18252;DHT22;26917;52.328;20.878;2022-10-31T13:32:06;14.30;99.90
18252;DHT22;26917;52.328;20.878;2022-10-31T13:34:37;14.30;99.90
18252;DHT22;26917;52.328;20.878;2022-10-31T13:37:12;14.30;99.90
18252;DHT22;26917;52.328;20.878;2022-10-31T13:40:02;14.30;99.90
18252;DHT22;26917;52.328;20.878;2022-10-31T13:42:44;14.20;99.90
18252;DHT22;26917;52.328;20.878;2022-10-31T13:45:16;14.20;99.90
18252;DHT22;26917;52.328;20.878;2022-10-31T13:47:57;14.30;99.90
18252;DHT22;26917;52.328;20.878;2022-10-31T13:50:28;14.20;99.90
18252;DHT22;26917;52.328;20.878;2022-10-31T13:53:12;14.20;99.90
18252;DHT22;26917;52.328;20.878;2022-10-31T13:55:42;14.10;99.90
18252;DHT22;26917;52.328;20.878;2022-10-31T13:58:22;14.10;99.90
18252;DHT22;26917;52.328;20.878;2022-10-31T14:01:09;14.10;99.90
18252;DHT22;26917;52.328;20.878;2022-10-31T14:03:43;14.00;99.90
18252;DHT22;26917;52.328;20.878;2022-10-31T14:06:38;14.00;99.90
18252;DHT22;26917;52.328;20.878;2022-10-31T14:09:20;14.00;99.90
18252;DHT22;26917;52.328;20.878;2022-10-31T14:11:50;13.90;99.90
18252;DHT22;26917;52.328;20.878;2022-10-31T14:14:22;13.90;99.90
18252;DHT22;26917;52.328;20.878;2022-10-31T14:16:55;13.90;99.90
18252;DHT22;26917;52.328;20.878;2022-10-31T14:19:26;13.80;99.90
18252;DHT22;26917;52.328;20.878;2022-10-31T14:21:57;13.80;99.90
18252;DHT22;26917;52.328;20.878;2022-10-31T14:24:34;13.70;99.90
18252;DHT22;26917;52.328;20.878;2022-10-31T14:27:32;13.60;99.90
18252;DHT22;26917;52.328;20.878;2022-10-31T14:30:17;13.50;99.90
18252;DHT22;26917;52.328;20.878;2022-10-31T14:32:51;13.40;99.90
18252;DHT22;26917;52.328;20.878;2022-10-31T14:35:25;13.40;99.90
18252;DHT22;26917;52.328;20.878;2022-10-31T14:38:14;13.30;99.90
18252;DHT22;26917;52.328;20.878;2022-10-31T14:40:55;13.20;99.90
18252;DHT22;26917;52.328;20.878;2022-10-31T14:43:52;13.20;99.90
18252;DHT22;26917;52.328;20.878;2022-10-31T14:46:35;13.10;99.90
18252;DHT22;26917;52.328;20.878;2022-10-31T14:49:17;13.00;99.90
18252;DHT22;26917;52.328;20.878;2022-10-31T14:51:50;12.90;99.90
18252;DHT22;26917;52.328;20.878;2022-10-31T14:54:23;12.80;99.90
18252;DHT22;26917;52.328;20.878;2022-10-31T14:56:55;12.70;99.90
18252;DHT22;26917;52.328;20.878;2022-10-31T14:59:28;12.60;99.90
18252;DHT22;26917;52.328;20.878;2022-10-31T15:02:13;12.60;99.90
18252;DHT22;26917;52.328;20.878;2022-10-31T15:04:44;12.50;99.90
18252;DHT22;26917;52.328;20.878;2022-10-31T15:07:17;12.40;99.90
18252;DHT22;26917;52.328;20.878;2022-10-31T15:09:57;12.30;99.90
18252;DHT22;26917;52.328;20.878;2022-10-31T15:12:27;12.30;99.90
18252;DHT22;26917;52.328;20.878;2022-10-31T15:14:56;12.20;99.90
18252;DHT22;26917;52.328;20.878;2022-10-31T15:17:26;12.10;99.90
18252;DHT22;26917;52.328;20.878;2022-10-31T15:19:54;12.10;99.90
18252;DHT22;26917;52.328;20.878;2022-10-31T15:22:26;12.00;99.90
18252;DHT22;26917;52.328;20.878;2022-10-31T15:24:56;11.90;99.90
18252;DHT22;26917;52.328;20.878;2022-10-31T15:27:24;11.90;99.90
18252;DHT22;26917;52.328;20.878;2022-10-31T15:29:54;11.80;99.90
18252;DHT22;26917;52.328;20.878;2022-10-31T15:32:23;11.80;99.90
18252;DHT22;26917;52.328;20.878;2022-10-31T15:34:52;11.70;99.90
18252;DHT22;26917;52.328;20.878;2022-10-31T15:37:22;11.70;99.90
18252;DHT22;26917;52.328;20.878;2022-10-31T15:39:53;11.60;99.90
18252;DHT22;26917;52.328;20.878;2022-10-31T15:42:23;11.60;99.90
18252;DHT22;26917;52.328;20.878;2022-10-31T15:45:01;11.60;99.90
18252;DHT22;26917;52.328;20.878;2022-10-31T15:47:31;11.60;99.90
18252;DHT22;26917;52.328;20.878;2022-10-31T15:50:02;11.60;99.90
18252;DHT22;26917;52.328;20.878;2022-10-31T15:52:32;11.60;99.90
18252;DHT22;26917;52.328;20.878;2022-10-31T15:55:15;11.50;99.90
18252;DHT22;26917;52.328;20.878;2022-10-31T15:57:46;11.50;99.90
18252;DHT22;26917;52.328;20.878;2022-10-31T16:00:25;11.50;99.90
18252;DHT22;26917;52.328;20.878;2022-10-31T16:03:05;11.50;99.90
18252;DHT22;26917;52.328;20.878;2022-10-31T16:05:37;11.50;99.90
18252;DHT22;26917;52.328;20.878;2022-10-31T16:08:22;11.60;99.90
18252;DHT22;26917;52.328;20.878;2022-10-31T16:10:53;11.50;99.90
18252;DHT22;26917;52.328;20.878;2022-10-31T16:13:25;11.60;99.90
18252;DHT22;26917;52.328;20.878;2022-10-31T16:15:55;11.60;99.90
18252;DHT22;26917;52.328;20.878;2022-10-31T16:18:44;11.60;99.90
18252;DHT22;26917;52.328;20.878;2022-10-31T16:21:13;11.60;99.90
18252;DHT22;26917;52.328;20.878;2022-10-31T16:23:45;11.60;99.90
18252;DHT22;26917;52.328;20.878;2022-10-31T16:26:18;11.60;99.90